createdAt,value
2023-11-04T00:01:24.388Z,94029.13
2023-11-04T00:04:11.501Z,94036.72
2023-11-04T00:06:57.574Z,94040.75
2023-11-04T00:09:50.946Z,94047.53
2023-11-04T00:12:39.242Z,94028.56
2023-11-04T00:15:25.753Z,94031.25
2023-11-04T00:18:12.246Z,94015.56
2023-11-04T00:20:58.389Z,94010.69
2023-11-04T00:23:44.388Z,94019.63
2023-11-04T00:26:30.559Z,94034.50
2023-11-04T00:29:16.481Z,94026.88
2023-11-04T00:32:02.666Z,94061.53
2023-11-04T00:34:49.179Z,94053.69
2023-11-04T00:37:35.510Z,94033.09
2023-11-04T00:40:21.994Z,94010.38
2023-11-04T00:43:07.998Z,94022.06
2023-11-04T00:45:54.061Z,94022.88
2023-11-04T00:48:41.204Z,94035.28
2023-11-04T00:51:28.123Z,94030.16
2023-11-04T00:54:14.494Z,94020.97
2023-11-04T00:57:00.841Z,93994.16
2023-11-04T00:59:46.645Z,93988.78
2023-11-04T01:02:33.353Z,93977.69
2023-11-04T01:05:19.734Z,93967.69
2023-11-04T01:08:06.410Z,93956.06
2023-11-04T01:10:52.543Z,93956.06
2023-11-04T01:13:38.945Z,93970.09
2023-11-04T01:16:25.452Z,93960.91
2023-11-04T01:19:11.782Z,93954.44
2023-11-04T01:21:58.490Z,93942.81
2023-11-04T01:24:45.060Z,93958.78
2023-11-04T01:27:31.523Z,93950.91
2023-11-04T01:30:18.523Z,93953.34
2023-11-04T01:33:05.114Z,93954.97
2023-11-04T01:35:52.205Z,93973.59
2023-11-04T01:38:38.590Z,93960.88
2023-11-04T01:41:25.953Z,93978.19
2023-11-04T01:44:12.127Z,93984.69
2023-11-04T01:46:58.979Z,93984.13
2023-11-04T01:49:45.553Z,93973.88
2023-11-04T01:52:32.051Z,93968.72
2023-11-04T01:55:18.590Z,93963.31
2023-11-04T01:58:04.688Z,93963.88
2023-11-04T02:00:51.152Z,93955.47
2023-11-04T02:03:37.448Z,93923.31
2023-11-04T02:06:23.587Z,93940.06
2023-11-04T02:09:10.339Z,93945.19
2023-11-04T02:11:56.899Z,93934.63
2023-11-04T02:14:53.086Z,93918.16
2023-11-04T02:17:40.099Z,93918.72
2023-11-04T02:20:27.236Z,93944.59
2023-11-04T02:23:14.002Z,93940.25
2023-11-04T02:26:00.319Z,93947.00
2023-11-04T02:28:46.242Z,93940.56
2023-11-04T02:31:32.183Z,93938.69
2023-11-04T02:34:18.325Z,93927.84
2023-11-04T02:37:04.583Z,93931.13
2023-11-04T02:39:51.067Z,93941.16
2023-11-04T02:42:37.563Z,93925.47
2023-11-04T02:45:23.730Z,93899.00
2023-11-04T02:48:09.926Z,93926.84
2023-11-04T02:50:56.086Z,93919.22
2023-11-04T02:53:42.030Z,93926.53
2023-11-04T02:56:29.327Z,93909.75
2023-11-04T02:59:15.314Z,93917.28
2023-11-04T03:02:02.156Z,93934.56
2023-11-04T03:04:48.432Z,93913.13
2023-11-04T03:07:34.598Z,93895.91
2023-11-04T03:10:20.915Z,93926.63
2023-11-04T03:13:07.436Z,93918.81
2023-11-04T03:15:53.742Z,93924.25
2023-11-04T03:18:40.111Z,93925.88
2023-11-04T03:21:26.314Z,93931.72
2023-11-04T03:24:12.935Z,93923.69
2023-11-04T03:26:59.687Z,93939.91
2023-11-04T03:29:45.640Z,93932.38
2023-11-04T03:32:32.371Z,93922.13
2023-11-04T03:35:19.015Z,93933.47
2023-11-04T03:38:04.953Z,93932.91
2023-11-04T03:40:51.254Z,93950.22
2023-11-04T03:43:37.539Z,93936.19
2023-11-04T03:46:24.123Z,93931.34
2023-11-04T03:49:10.298Z,93945.13
2023-11-04T03:51:58.170Z,93920.31
2023-11-04T03:54:44.530Z,93917.84
2023-11-04T03:57:31.164Z,93908.16
2023-11-04T04:00:17.795Z,93880.88
2023-11-04T04:03:03.964Z,93872.50
2023-11-04T04:05:50.168Z,93849.50
2023-11-04T04:08:36.201Z,93864.13
2023-11-04T04:11:24.652Z,93854.41
2023-11-04T04:14:11.164Z,93838.19
2023-11-04T04:16:57.321Z,93812.25
2023-11-04T04:19:43.220Z,93825.50
2023-11-04T04:22:29.571Z,93872.50
2023-11-04T04:25:16.286Z,93881.91
2023-11-04T04:28:02.643Z,93899.50
2023-11-04T04:30:48.812Z,93911.91
2023-11-04T04:33:35.442Z,93900.00
2023-11-04T04:36:21.717Z,93918.94
2023-11-04T04:39:08.576Z,93910.81
2023-11-04T04:41:54.771Z,93887.88
2023-11-04T04:44:40.744Z,93884.91
2023-11-04T04:47:26.974Z,93881.63
2023-11-04T04:50:13.278Z,93876.50
2023-11-04T04:52:59.463Z,93888.09
2023-11-04T04:55:45.603Z,93920.00
2023-11-04T04:58:31.630Z,93906.75
2023-11-04T05:01:21.834Z,93913.78
2023-11-04T05:04:09.220Z,93903.78
2023-11-04T05:06:55.365Z,93886.19
2023-11-04T05:09:41.472Z,93885.09
2023-11-04T05:12:27.554Z,93905.41
2023-11-04T05:15:13.655Z,93901.09
2023-11-04T05:18:00.041Z,93887.31
2023-11-04T05:20:46.436Z,93901.63
2023-11-04T05:23:35.096Z,93897.59
2023-11-04T05:26:23.066Z,93880.28
2023-11-04T05:29:12.796Z,93866.22
2023-11-04T05:31:58.738Z,93847.84
2023-11-04T05:34:45.579Z,93823.81
2023-11-04T05:37:31.958Z,93790.34
2023-11-04T05:40:17.983Z,93796.56
2023-11-04T05:43:04.420Z,93784.09
2023-11-04T05:45:51.113Z,93808.41
2023-11-04T05:48:37.258Z,93788.69
2023-11-04T05:51:26.810Z,93773.03
2023-11-04T05:54:13.657Z,93815.47
2023-11-04T05:56:59.717Z,93825.72
2023-11-04T05:59:45.893Z,93851.63
2023-11-04T06:02:32.200Z,93849.47
2023-11-04T06:05:18.423Z,93872.69
2023-11-04T06:08:04.768Z,93875.91
2023-11-04T06:10:51.048Z,93897.00
2023-11-04T06:13:36.982Z,93900.75
2023-11-04T06:16:23.124Z,93911.81
2023-11-04T06:19:09.611Z,93931.50
2023-11-04T06:21:56.091Z,93945.06
2023-11-04T06:24:42.089Z,93940.66
2023-11-04T06:27:28.227Z,93966.91
2023-11-04T06:30:14.625Z,93974.94
2023-11-04T06:33:00.852Z,93930.13
2023-11-04T06:35:47.370Z,93948.81
2023-11-04T06:38:33.371Z,93957.44
2023-11-04T06:41:20.827Z,93971.97
2023-11-04T06:44:07.092Z,93957.13
2023-11-04T06:46:56.138Z,93958.75
2023-11-04T06:49:42.395Z,93954.75
2023-11-04T06:52:30.096Z,93952.81
2023-11-04T06:55:16.997Z,93961.25
2023-11-04T06:58:03.346Z,93951.50
2023-11-04T07:00:50.034Z,93948.00
2023-11-04T07:03:36.334Z,93948.28
2023-11-04T07:06:22.530Z,93933.72
2023-11-04T07:09:10.264Z,93921.81
2023-11-04T07:11:56.347Z,93937.00
2023-11-04T07:14:42.223Z,93940.50
2023-11-04T07:17:28.450Z,93958.88
2023-11-04T07:20:15.242Z,93973.72
2023-11-04T07:23:01.306Z,93985.88
2023-11-04T07:25:47.541Z,93988.84
2023-11-04T07:28:37.635Z,93983.69
2023-11-04T07:31:24.106Z,93973.16
2023-11-04T07:34:10.205Z,93965.56
2023-11-04T07:36:56.885Z,93986.13
2023-11-04T07:39:42.686Z,93980.47
2023-11-04T07:42:28.813Z,93969.63
2023-11-04T07:45:14.715Z,93977.50
2023-11-04T07:48:00.748Z,93969.63
2023-11-04T07:50:46.595Z,94002.34
2023-11-04T07:53:32.585Z,93999.91
2023-11-04T07:56:18.527Z,93994.78
2023-11-04T07:59:04.737Z,93993.69
2023-11-04T08:01:50.972Z,93990.72
2023-11-04T08:04:38.503Z,93984.25
2023-11-04T08:07:25.033Z,93976.13
2023-11-04T08:10:11.120Z,93968.28
2023-11-04T08:12:57.269Z,93964.25
2023-11-04T08:15:43.319Z,93970.75
2023-11-04T08:18:33.068Z,93973.72
2023-11-04T08:21:20.405Z,93957.78
2023-11-04T08:24:06.889Z,93950.50
2023-11-04T08:26:53.634Z,93938.59
2023-11-04T08:29:42.896Z,93947.53
2023-11-04T08:32:29.869Z,93947.78
2023-11-04T08:35:16.221Z,93954.78
2023-11-04T08:38:02.637Z,93967.78
2023-11-04T08:40:49.155Z,93958.28
2023-11-04T08:43:35.419Z,93963.34
2023-11-04T08:46:21.466Z,93958.56
2023-11-04T08:49:08.349Z,93958.00
2023-11-04T08:51:54.442Z,93967.59
2023-11-04T08:54:43.460Z,93980.41
2023-11-04T08:57:29.431Z,93960.16
2023-11-04T09:00:16.838Z,93977.09
2023-11-04T09:03:03.069Z,93980.28
2023-11-04T09:05:49.231Z,93994.56
2023-11-04T09:08:35.777Z,93996.72
2023-11-04T09:11:21.754Z,94007.25
2023-11-04T09:14:07.756Z,93991.69
2023-11-04T09:16:53.881Z,93993.81
2023-11-04T09:19:45.433Z,94014.66
2023-11-04T09:22:31.421Z,93992.63
2023-11-04T09:25:17.679Z,93997.56
2023-11-04T09:28:03.911Z,94003.56
2023-11-04T09:30:51.020Z,94009.44
2023-11-04T09:33:37.444Z,93999.22
2023-11-04T09:36:23.599Z,93987.63
2023-11-04T09:39:10.055Z,93988.72
2023-11-04T09:41:58.703Z,93987.66
2023-11-04T09:44:45.075Z,93979.81
2023-11-04T09:47:32.605Z,93987.16
2023-11-04T09:50:18.968Z,93976.66
2023-11-04T09:53:16.791Z,93972.03
2023-11-04T09:56:10.272Z,93973.69
2023-11-04T09:58:59.740Z,93978.84
2023-11-04T10:01:46.693Z,93974.75
2023-11-04T10:04:33.642Z,93971.81
2023-11-04T10:07:19.536Z,93957.53
2023-11-04T10:10:16.514Z,93945.41
2023-11-04T10:13:08.898Z,93952.81
2023-11-04T10:15:55.039Z,93962.91
2023-11-04T10:18:41.062Z,93948.22
2023-11-04T10:21:27.686Z,93933.69
2023-11-04T10:24:15.230Z,93935.03
2023-11-04T10:27:03.036Z,93934.22
2023-11-04T10:29:49.436Z,93965.31
2023-11-04T10:32:37.817Z,93972.81
2023-11-04T10:35:25.518Z,93987.59
2023-11-04T10:38:13.209Z,93971.38
2023-11-04T10:41:00.520Z,93993.53
2023-11-04T10:43:53.013Z,93995.84
2023-11-04T10:46:59.699Z,93977.72
2023-11-04T10:50:04.499Z,93970.16
2023-11-04T10:53:02.881Z,93982.69
2023-11-04T10:56:04.895Z,93979.69
2023-11-04T10:59:11.653Z,93974.69
2023-11-04T11:01:58.694Z,93963.78
2023-11-04T11:04:45.644Z,93957.84
2023-11-04T11:07:31.655Z,93955.69
2023-11-04T11:10:22.863Z,93944.66
2023-11-04T11:13:12.534Z,93932.44
2023-11-04T11:16:02.277Z,93940.88
2023-11-04T11:18:48.621Z,93929.59
2023-11-04T11:21:34.805Z,93918.72
2023-11-04T11:24:22.261Z,93942.28
2023-11-04T11:27:09.110Z,93950.91
2023-11-04T11:29:57.744Z,93952.94
2023-11-04T11:32:44.131Z,93947.06
2023-11-04T11:36:08.687Z,93963.31
2023-11-04T11:38:57.615Z,93960.94
2023-11-04T11:41:44.811Z,93965.56
2023-11-04T11:44:30.931Z,93979.38
2023-11-04T11:47:17.098Z,93963.91
2023-11-04T11:50:04.524Z,93971.44
2023-11-04T11:52:51.032Z,93984.53
2023-11-04T11:55:42.068Z,93982.22
2023-11-04T11:58:29.680Z,93977.59
2023-11-04T12:01:20.258Z,93996.59
2023-11-04T12:04:07.561Z,93996.59
2023-11-04T12:07:01.466Z,94009.50
2023-11-04T12:09:47.691Z,94001.94
2023-11-04T12:12:33.801Z,94004.16
2023-11-04T12:15:22.533Z,93995.34
2023-11-04T12:18:11.241Z,93998.88
2023-11-04T12:20:58.035Z,93995.16
2023-11-04T12:23:46.264Z,94011.41
2023-11-04T12:26:33.574Z,93992.19
2023-11-04T12:29:20.513Z,94016.31
2023-11-04T12:32:07.183Z,94001.56
2023-11-04T12:34:57.317Z,94007.28
2023-11-04T12:37:43.446Z,94008.34
2023-11-04T12:40:30.837Z,94007.34
2023-11-04T12:43:17.408Z,94003.25
2023-11-04T12:46:04.744Z,93995.28
2023-11-04T12:48:51.098Z,93990.50
2023-11-04T12:51:37.326Z,94017.59
2023-11-04T12:54:23.609Z,94020.75
2023-11-04T12:57:11.527Z,94039.97
2023-11-04T13:00:00.153Z,94045.69
2023-11-04T13:02:46.296Z,94031.13
2023-11-04T13:05:33.041Z,94040.81
2023-11-04T13:08:19.263Z,94051.41
2023-11-04T13:11:06.371Z,94040.59
2023-11-04T13:13:52.685Z,94041.91
2023-11-04T13:16:39.087Z,94038.69
2023-11-04T13:19:25.446Z,94053.63
2023-11-04T13:22:11.584Z,94052.19
2023-11-04T13:24:59.825Z,94039.13
2023-11-04T13:27:46.814Z,94032.25
2023-11-04T13:30:34.277Z,94039.91
2023-11-04T13:33:20.475Z,94067.56
2023-11-04T13:36:06.873Z,94050.25
2023-11-04T13:39:00.254Z,94066.47
2023-11-04T13:41:52.940Z,94056.41
2023-11-04T13:44:40.793Z,94065.91
2023-11-04T13:47:27.430Z,94076.44
2023-11-04T13:50:13.649Z,94073.16
2023-11-04T13:53:00.266Z,94078.03
2023-11-04T13:55:46.345Z,94097.19
2023-11-04T13:58:33.510Z,94092.84
2023-11-04T14:01:19.487Z,94094.19
2023-11-04T14:04:05.781Z,94073.09
2023-11-04T14:06:52.115Z,94094.72
2023-11-04T14:09:38.400Z,94091.41
2023-11-04T14:12:24.789Z,94104.41
2023-11-04T14:15:11.802Z,94116.00
2023-11-04T14:17:58.081Z,94131.38
2023-11-04T14:20:44.890Z,94129.19
2023-11-04T14:23:30.992Z,94127.00
2023-11-04T14:26:17.331Z,94103.84
2023-11-04T14:29:03.524Z,94138.00
2023-11-04T14:31:50.029Z,94146.09
2023-11-04T14:34:36.620Z,94146.38
2023-11-04T14:37:22.723Z,94156.84
2023-11-04T14:40:17.961Z,94149.47
2023-11-04T14:43:04.568Z,94170.06
2023-11-04T14:45:50.599Z,94172.44
2023-11-04T14:48:36.962Z,94144.63
2023-11-04T14:51:26.539Z,94118.34
2023-11-04T14:54:13.870Z,94101.88
2023-11-04T14:57:02.320Z,94098.91
2023-11-04T14:59:53.613Z,94108.94
2023-11-04T15:02:40.372Z,94117.22
2023-11-04T15:05:26.778Z,94122.53
2023-11-04T15:08:14.605Z,94131.75
2023-11-04T15:11:00.835Z,94139.28
2023-11-04T15:13:47.265Z,94143.31
2023-11-04T15:16:34.277Z,94160.34
2023-11-04T15:19:20.291Z,94152.69
2023-11-04T15:22:07.056Z,94165.03
2023-11-04T15:24:53.641Z,94183.72
2023-11-04T15:27:39.864Z,94168.75
2023-11-04T15:30:26.289Z,94193.03
2023-11-04T15:33:14.469Z,94198.44
2023-11-04T15:36:00.882Z,94215.44
2023-11-04T15:38:47.456Z,94209.72
2023-11-04T15:41:37.077Z,94212.38
2023-11-04T15:44:24.018Z,94208.59
2023-11-04T15:47:10.197Z,94225.59
2023-11-04T15:49:56.179Z,94215.78
2023-11-04T15:52:42.031Z,94200.88
2023-11-04T15:55:27.997Z,94238.19
2023-11-04T15:58:14.362Z,94258.03
2023-11-04T16:01:00.493Z,94258.34
2023-11-04T16:03:47.621Z,94263.16
2023-11-04T16:06:33.521Z,94262.94
2023-11-04T16:09:19.597Z,94267.75
2023-11-04T16:12:07.585Z,94267.19
2023-11-04T16:14:53.811Z,94267.75
2023-11-04T16:17:40.132Z,94265.56
2023-11-04T16:20:26.337Z,94271.19
2023-11-04T16:23:12.875Z,94273.34
2023-11-04T16:25:59.227Z,94276.09
2023-11-04T16:28:45.913Z,94276.59
2023-11-04T16:31:32.086Z,94283.81
2023-11-04T16:34:18.150Z,94287.56
2023-11-04T16:37:05.139Z,94278.34
2023-11-04T16:39:51.439Z,94279.41
2023-11-04T16:42:37.638Z,94277.47
2023-11-04T16:45:24.981Z,94254.69
2023-11-04T16:48:12.186Z,94263.59
2023-11-04T16:50:58.264Z,94261.97
2023-11-04T16:53:44.617Z,94286.38
2023-11-04T16:56:30.994Z,94300.09
2023-11-04T16:59:17.807Z,94291.63
2023-11-04T17:02:04.145Z,94299.97
2023-11-04T17:04:51.651Z,94305.59
2023-11-04T17:10:27.011Z,94323.50
2023-11-04T17:13:13.734Z,94334.91
2023-11-04T17:15:59.767Z,94340.56
2023-11-04T17:18:45.984Z,94350.22
2023-11-04T17:21:32.202Z,94351.50
2023-11-04T17:24:18.182Z,94355.91
2023-11-04T17:27:04.567Z,94354.13
2023-11-04T17:29:50.911Z,94357.03
2023-11-04T17:32:37.376Z,94368.41
2023-11-04T17:35:24.073Z,94371.03
2023-11-04T17:38:10.212Z,94366.03
2023-11-04T17:40:56.489Z,94359.75
2023-11-04T17:43:43.194Z,94377.94
2023-11-04T17:46:29.105Z,94373.56
2023-11-04T17:49:15.417Z,94376.25
2023-11-04T17:52:01.554Z,94370.44
2023-11-04T17:54:48.619Z,94375.91
2023-11-04T17:57:34.730Z,94376.25
2023-11-04T18:00:21.307Z,94390.81
2023-11-04T18:03:07.711Z,94379.59
2023-11-04T18:05:54.006Z,94386.69
2023-11-04T18:08:40.608Z,94397.22
2023-11-04T18:11:26.743Z,94397.47
2023-11-04T18:14:13.331Z,94402.94
2023-11-04T18:17:01.221Z,94403.53
2023-11-04T18:19:48.406Z,94396.25
2023-11-04T18:22:34.689Z,94393.47
2023-11-04T18:25:21.342Z,94406.56
2023-11-04T18:28:07.718Z,94402.94
2023-11-04T18:30:54.064Z,94400.00
2023-11-04T18:33:40.189Z,94412.50
2023-11-04T18:36:26.840Z,94412.97
2023-11-04T18:39:15.872Z,94413.78
2023-11-04T18:42:03.004Z,94412.75
2023-11-04T18:44:49.484Z,94421.66
2023-11-04T18:47:35.779Z,94426.22
2023-11-04T18:50:21.667Z,94414.50
2023-11-04T18:53:08.676Z,94420.06
2023-11-04T18:55:54.564Z,94405.03
2023-11-04T18:58:40.922Z,94438.94
2023-11-04T19:01:27.050Z,94435.38
2023-11-04T19:04:13.121Z,94424.81
2023-11-04T19:07:00.166Z,94421.91
2023-11-04T19:09:46.183Z,94431.53
2023-11-04T19:12:32.425Z,94418.38
2023-11-04T19:15:18.454Z,94400.47
2023-11-04T19:18:09.582Z,94446.34
2023-11-04T19:20:56.236Z,94449.03
2023-11-04T19:23:42.897Z,94441.91
2023-11-04T19:26:29.265Z,94463.88
2023-11-04T19:29:15.476Z,94450.94
2023-11-04T19:32:02.126Z,94455.16
2023-11-04T19:34:48.209Z,94473.16
2023-11-04T19:37:34.477Z,94415.66
2023-11-04T19:40:21.166Z,94475.28
2023-11-04T19:43:09.105Z,94468.00
2023-11-04T19:45:55.751Z,94482.53
2023-11-04T19:48:42.997Z,94489.09
2023-11-04T19:51:29.050Z,94483.16
2023-11-04T19:54:14.991Z,94494.63
2023-11-04T19:57:01.174Z,94497.78
2023-11-04T19:59:49.256Z,94500.25
2023-11-04T20:02:35.591Z,94491.59
2023-11-04T20:05:21.735Z,94469.34
2023-11-04T20:08:09.149Z,94478.22
2023-11-04T20:10:55.283Z,94497.41
2023-11-04T20:13:42.776Z,94464.56
2023-11-04T20:16:28.756Z,94487.38
2023-11-04T20:19:16.437Z,94481.41
2023-11-04T20:22:03.669Z,94486.78
2023-11-04T20:24:54.429Z,94483.38
2023-11-04T20:27:40.455Z,94481.50
2023-11-04T20:30:26.529Z,94476.94
2023-11-04T20:33:13.195Z,94463.53
2023-11-04T20:35:59.312Z,94480.94
2023-11-04T20:38:45.468Z,94481.75
2023-11-04T20:41:31.573Z,94472.44
2023-11-04T20:44:18.883Z,94492.41
2023-11-04T20:47:05.318Z,94494.75
2023-11-04T20:49:51.770Z,94488.78
2023-11-04T20:52:38.406Z,94499.78
2023-11-04T20:55:26.167Z,94494.03
2023-11-04T20:58:12.399Z,94476.50
2023-11-04T21:00:58.496Z,94483.88
2023-11-04T21:03:44.607Z,94491.38
2023-11-04T21:06:30.844Z,94495.44
2023-11-04T21:09:17.476Z,94494.50
2023-11-04T21:12:04.319Z,94491.25
2023-11-04T21:14:50.565Z,94485.25
2023-11-04T21:17:36.763Z,94496.25
2023-11-04T21:20:23.916Z,94497.75
2023-11-04T21:23:10.796Z,94505.47
2023-11-04T21:25:57.134Z,94494.59
2023-11-04T21:28:43.531Z,94494.22
2023-11-04T21:31:29.590Z,94505.78
2023-11-04T21:34:15.899Z,94506.50
2023-11-04T21:37:03.178Z,94510.91
2023-11-04T21:39:50.610Z,94515.47
2023-11-04T21:42:36.815Z,94519.66
2023-11-04T21:45:23.570Z,94513.13
2023-11-04T21:48:09.590Z,94507.53
2023-11-04T21:50:55.877Z,94518.50
2023-11-04T21:53:43.107Z,94512.41
2023-11-04T21:56:29.595Z,94521.72
2023-11-04T21:59:16.216Z,94498.59
2023-11-04T22:02:03.026Z,94489.22
2023-11-04T22:04:49.533Z,94522.78
2023-11-04T22:07:35.893Z,94515.41
2023-11-04T22:10:21.905Z,94519.38
2023-11-04T22:13:08.431Z,94523.94
2023-11-04T22:15:55.797Z,94526.81
2023-11-04T22:18:42.124Z,94531.38
2023-11-04T22:21:29.497Z,94507.97
2023-11-04T22:24:15.702Z,94525.19
2023-11-04T22:27:02.875Z,94514.25
2023-11-04T22:29:50.145Z,94522.59
2023-11-04T22:32:36.482Z,94541.16
2023-11-04T22:35:22.522Z,94519.75
2023-11-04T22:38:08.745Z,94510.88
2023-11-04T22:40:55.716Z,94538.56
2023-11-04T22:43:42.184Z,94540.13
2023-11-04T22:46:28.647Z,94544.53
2023-11-04T22:49:14.823Z,94521.72
2023-11-04T22:52:00.905Z,94535.16
2023-11-04T22:54:47.517Z,94547.50
2023-11-04T22:57:33.542Z,94546.09
2023-11-04T23:00:40.578Z,94549.38
2023-11-04T23:03:27.089Z,94546.09
2023-11-04T23:06:13.243Z,94514.88
2023-11-04T23:08:59.800Z,94531.13
2023-11-04T23:11:45.867Z,94517.72
2023-11-04T23:14:31.839Z,94523.69
2023-11-04T23:17:17.921Z,94531.44
2023-11-04T23:20:04.831Z,94526.66
2023-11-04T23:22:52.637Z,94526.53
2023-11-04T23:25:38.838Z,94509.84
2023-11-04T23:28:24.840Z,94512.97
2023-11-04T23:31:10.671Z,94513.41
2023-11-04T23:34:00.832Z,94511.31
2023-11-04T23:36:49.998Z,94513.09
2023-11-04T23:39:36.466Z,94518.63
2023-11-04T23:42:23.010Z,94524.78
2023-11-04T23:45:10.828Z,94511.91
2023-11-04T23:47:57.064Z,94518.47
2023-11-04T23:50:43.465Z,94518.31
2023-11-04T23:53:29.497Z,94530.00
2023-11-04T23:56:15.611Z,94510.44
2023-11-04T23:59:02.042Z,94515.22
